createdAt,value
2019-02-10T00:00:39.801Z,18.27
2019-02-10T00:03:10.329Z,17.30
2019-02-10T00:05:40.635Z,16.37
2019-02-10T00:08:10.961Z,17.03
2019-02-10T00:10:41.291Z,16.23
2019-02-10T00:13:51.086Z,16.57
2019-02-10T00:16:22.259Z,15.37
2019-02-10T00:18:52.687Z,15.73
2019-02-10T00:21:24.014Z,15.00
2019-02-10T00:23:54.638Z,14.97
2019-02-10T00:26:24.885Z,14.70
2019-02-10T00:28:55.181Z,14.27
2019-02-10T00:31:25.413Z,15.10
2019-02-10T00:33:55.513Z,14.67
2019-02-10T00:36:33.046Z,14.80
2019-02-10T00:38:57.987Z,13.70
2019-02-10T00:41:28.846Z,13.83
2019-02-10T00:43:59.890Z,14.17
2019-02-10T00:46:30.370Z,14.50
2019-02-10T00:49:00.602Z,16.87
2019-02-10T00:51:30.836Z,15.10
2019-02-10T00:54:01.038Z,14.60
2019-02-10T00:56:31.444Z,14.83
2019-02-10T00:59:01.763Z,14.23
2019-02-10T01:01:32.033Z,15.87
2019-02-10T01:04:02.716Z,14.33
2019-02-10T01:06:40.993Z,14.87
2019-02-10T01:09:05.656Z,14.47
2019-02-10T01:11:36.007Z,14.63
2019-02-10T01:14:06.277Z,14.67
2019-02-10T01:16:37.338Z,14.87
2019-02-10T01:19:11.083Z,15.33
2019-02-10T01:21:48.220Z,14.77
2019-02-10T01:24:18.642Z,14.70
2019-02-10T01:26:48.960Z,14.77
2019-02-10T01:29:19.217Z,15.37
2019-02-10T01:31:49.419Z,14.57
2019-02-10T01:34:19.668Z,14.77
2019-02-10T01:36:50.173Z,13.70
2019-02-10T01:39:24.618Z,14.17
2019-02-10T01:41:54.925Z,14.37
2019-02-10T01:44:25.152Z,15.10
2019-02-10T01:46:55.369Z,13.70
2019-02-10T01:49:25.665Z,13.90
2019-02-10T01:51:55.941Z,14.30
2019-02-10T01:54:26.141Z,12.37
2019-02-10T01:56:56.319Z,12.80
2019-02-10T01:59:26.628Z,13.50
2019-02-10T02:01:56.818Z,12.77
2019-02-10T02:04:27.112Z,12.90
2019-02-10T02:06:58.134Z,12.83
2019-02-10T02:09:28.595Z,12.60
2019-02-10T02:11:59.256Z,12.67
2019-02-10T02:14:29.505Z,12.33
2019-02-10T02:16:59.763Z,12.20
2019-02-10T02:19:30.012Z,11.53
2019-02-10T02:22:02.141Z,12.20
2019-02-10T02:24:32.444Z,12.80
2019-02-10T02:27:03.007Z,13.20
2019-02-10T02:29:33.255Z,12.87
2019-02-10T02:32:03.525Z,12.40
2019-02-10T02:34:34.144Z,13.67
2019-02-10T02:37:07.997Z,13.43
2019-02-10T02:39:36.490Z,12.63
2019-02-10T02:42:06.861Z,13.90
2019-02-10T02:44:37.213Z,12.80
2019-02-10T02:47:07.018Z,12.60
2019-02-10T02:49:37.343Z,12.93
2019-02-10T02:52:07.918Z,12.80
2019-02-10T02:54:38.156Z,13.13
2019-02-10T02:57:08.383Z,12.13
2019-02-10T02:59:38.614Z,12.90
2019-02-10T03:02:13.820Z,12.50
2019-02-10T03:04:44.130Z,11.93
2019-02-10T03:07:18.077Z,13.20
2019-02-10T03:09:46.320Z,13.20
2019-02-10T03:12:16.595Z,13.90
2019-02-10T03:14:46.813Z,12.10
2019-02-10T03:17:16.897Z,12.80
2019-02-10T03:19:47.091Z,12.17
2019-02-10T03:22:17.323Z,12.97
2019-02-10T03:24:47.697Z,14.03
2019-02-10T03:27:18.171Z,13.93
2019-02-10T03:29:48.380Z,13.20
2019-02-10T03:32:18.669Z,11.87
2019-02-10T03:34:48.946Z,12.70
2019-02-10T03:37:26.946Z,12.90
2019-02-10T03:39:51.081Z,12.50
2019-02-10T03:42:21.534Z,12.10
2019-02-10T03:44:51.772Z,12.20
2019-02-10T03:47:22.350Z,12.93
2019-02-10T03:49:53.343Z,13.50
2019-02-10T03:52:23.659Z,12.77
2019-02-10T03:54:54.047Z,13.00
2019-02-10T03:57:24.933Z,12.57
2019-02-10T03:59:55.195Z,12.00
2019-02-10T04:02:25.571Z,15.20
2019-02-10T04:04:55.781Z,11.50
2019-02-10T04:07:26.077Z,11.53
2019-02-10T04:09:56.391Z,11.03
2019-02-10T04:12:26.659Z,11.30
2019-02-10T04:14:58.885Z,9.90
2019-02-10T04:17:29.138Z,10.17
2019-02-10T04:19:59.413Z,10.03
2019-02-10T04:22:30.407Z,9.23
2019-02-10T04:25:00.689Z,10.70
2019-02-10T04:27:31.169Z,10.03
2019-02-10T04:30:01.280Z,9.90
2019-02-10T04:32:31.563Z,10.00
2019-02-10T04:35:01.825Z,10.23
2019-02-10T04:37:32.098Z,10.73
2019-02-10T04:40:02.415Z,9.73
2019-02-10T04:42:32.672Z,10.50
2019-02-10T04:45:02.958Z,10.40
2019-02-10T04:47:33.379Z,9.37
2019-02-10T04:50:03.551Z,11.70
2019-02-10T04:52:33.826Z,10.20
2019-02-10T04:55:04.396Z,10.80
2019-02-10T04:57:34.628Z,10.83
2019-02-10T05:00:05.043Z,16.20
2019-02-10T05:02:35.339Z,10.10
2019-02-10T05:05:05.672Z,10.80
2019-02-10T05:07:35.996Z,11.70
2019-02-10T05:10:06.605Z,10.90
2019-02-10T05:12:36.853Z,10.70
2019-02-10T05:15:07.490Z,10.73
2019-02-10T05:17:37.808Z,11.00
2019-02-10T05:20:08.716Z,10.40
2019-02-10T05:22:40.644Z,10.10
2019-02-10T05:25:11.347Z,10.93
2019-02-10T05:27:42.728Z,10.57
2019-02-10T05:30:13.931Z,9.53
2019-02-10T05:32:44.502Z,10.60
2019-02-10T05:35:15.947Z,10.73
2019-02-10T05:37:47.102Z,12.13
2019-02-10T05:40:19.671Z,10.43
2019-02-10T05:42:51.645Z,10.93
2019-02-10T05:45:22.117Z,11.63
2019-02-10T05:47:52.729Z,10.33
2019-02-10T05:50:23.802Z,13.63
2019-02-10T05:52:54.875Z,10.87
2019-02-10T05:55:25.833Z,11.60
2019-02-10T05:57:57.574Z,9.70
2019-02-10T06:00:29.400Z,11.03
2019-02-10T06:02:59.909Z,11.80
2019-02-10T06:05:31.609Z,10.17
2019-02-10T06:08:02.285Z,11.60
2019-02-10T06:10:33.080Z,11.50
2019-02-10T06:13:04.833Z,11.50
2019-02-10T06:15:35.425Z,13.17
2019-02-10T06:18:06.089Z,10.80
2019-02-10T06:20:36.756Z,10.50
2019-02-10T06:23:07.539Z,11.10
2019-02-10T06:25:38.373Z,10.93
2019-02-10T06:28:09.222Z,10.50
2019-02-10T06:30:40.053Z,10.73
2019-02-10T06:33:11.142Z,12.43
2019-02-10T06:35:42.827Z,15.43
2019-02-10T06:38:21.893Z,12.03
2019-02-10T06:40:45.919Z,13.93
2019-02-10T06:43:16.771Z,12.07
2019-02-10T06:45:47.778Z,11.93
2019-02-10T06:48:18.629Z,12.17
2019-02-10T06:50:49.445Z,12.77
2019-02-10T06:53:20.179Z,16.77
2019-02-10T06:55:51.240Z,13.57
2019-02-10T06:58:22.130Z,14.00
2019-02-10T07:01:03.702Z,12.40
2019-02-10T07:03:58.019Z,12.90
2019-02-10T07:06:28.899Z,13.30
2019-02-10T07:08:59.741Z,13.00
2019-02-10T07:11:30.629Z,15.10
2019-02-10T07:14:02.962Z,14.70
2019-02-10T07:16:39.888Z,16.20
2019-02-10T07:19:46.119Z,16.43
2019-02-10T07:23:03.203Z,16.47
2019-02-10T07:25:55.398Z,17.67
2019-02-10T07:28:49.105Z,18.80
2019-02-10T07:31:31.141Z,19.30
2019-02-10T07:34:35.155Z,18.57
2019-02-10T07:37:37.955Z,18.70
2019-02-10T07:40:55.754Z,19.03
2019-02-10T07:44:16.584Z,18.70
2019-02-10T07:47:25.703Z,17.27
2019-02-10T07:50:37.593Z,19.00
2019-02-10T07:53:52.470Z,19.50
2019-02-10T07:56:58.951Z,18.30
2019-02-10T07:59:55.062Z,17.83
2019-02-10T08:02:50.626Z,20.33
2019-02-10T08:05:41.422Z,17.93
2019-02-10T08:09:17.187Z,17.53
2019-02-10T08:12:06.181Z,19.10
2019-02-10T08:15:06.981Z,19.50
2019-02-10T08:18:24.676Z,18.37
2019-02-10T08:21:27.286Z,17.40
2019-02-10T08:24:33.227Z,18.80
2019-02-10T08:27:44.228Z,19.43
2019-02-10T08:30:40.863Z,19.17
2019-02-10T08:33:29.941Z,18.60
2019-02-10T08:36:21.782Z,18.73
2019-02-10T08:39:26.790Z,20.13
2019-02-10T08:42:22.784Z,18.77
2019-02-10T08:45:30.320Z,21.03
2019-02-10T08:48:40.167Z,20.90
2019-02-10T08:51:47.343Z,18.90
2019-02-10T08:54:18.366Z,22.60
2019-02-10T08:56:49.107Z,19.73
2019-02-10T08:59:19.725Z,24.87
2019-02-10T09:01:50.221Z,21.17
2019-02-10T09:04:21.029Z,22.30
2019-02-10T09:06:52.236Z,23.97
2019-02-10T09:09:23.018Z,21.30
2019-02-10T09:11:53.676Z,23.30
2019-02-10T09:14:24.023Z,20.43
2019-02-10T09:16:55.024Z,26.83
2019-02-10T09:19:25.949Z,26.03
2019-02-10T09:21:56.697Z,29.30
2019-02-10T09:24:27.210Z,25.13
2019-02-10T09:26:58.382Z,27.40
2019-02-10T09:29:29.626Z,25.27
2019-02-10T09:32:34.583Z,23.53
2019-02-10T09:35:33.832Z,24.07
2019-02-10T09:38:47.856Z,24.83
2019-02-10T09:41:20.164Z,26.10
2019-02-10T09:43:51.010Z,22.10
2019-02-10T09:46:22.172Z,22.47
2019-02-10T09:48:53.057Z,21.73
2019-02-10T09:51:23.815Z,23.00
2019-02-10T09:53:55.168Z,24.17
2019-02-10T09:56:26.075Z,23.50
2019-02-10T09:58:57.134Z,20.50
2019-02-10T10:01:28.220Z,23.53
2019-02-10T10:03:59.248Z,23.67
2019-02-10T10:06:30.180Z,22.87
2019-02-10T10:09:01.382Z,22.47
2019-02-10T10:11:32.441Z,23.17
2019-02-10T10:14:03.946Z,22.27
2019-02-10T10:16:34.825Z,24.60
2019-02-10T10:19:05.749Z,23.37
2019-02-10T10:21:36.877Z,24.80
2019-02-10T10:24:08.025Z,24.23
2019-02-10T10:26:39.793Z,22.83
2019-02-10T10:29:11.171Z,23.80
2019-02-10T10:31:41.767Z,22.80
2019-02-10T10:34:13.840Z,23.43
2019-02-10T10:36:44.358Z,22.50
2019-02-10T10:39:15.510Z,20.63
2019-02-10T10:41:47.109Z,21.63
2019-02-10T10:44:18.015Z,21.23
2019-02-10T10:46:49.023Z,21.63
2019-02-10T10:49:20.582Z,24.07
2019-02-10T10:51:52.184Z,21.63
2019-02-10T10:54:24.155Z,23.87
2019-02-10T10:56:55.634Z,24.23
2019-02-10T10:59:27.552Z,23.83
2019-02-10T11:01:59.537Z,22.67
2019-02-10T11:04:30.595Z,23.80
2019-02-10T11:07:02.904Z,23.40
2019-02-10T11:09:35.824Z,22.97
2019-02-10T11:12:07.315Z,21.50
2019-02-10T11:14:38.011Z,23.43
2019-02-10T11:17:10.589Z,24.17
2019-02-10T11:19:41.994Z,23.37
2019-02-10T11:22:13.568Z,23.10
2019-02-10T11:24:46.536Z,22.73
2019-02-10T11:27:17.954Z,24.87
2019-02-10T11:29:49.619Z,23.50
2019-02-10T11:32:21.793Z,23.33
2019-02-10T11:34:53.453Z,25.77
2019-02-10T11:37:26.929Z,25.03
2019-02-10T11:39:57.511Z,23.90
2019-02-10T11:42:28.788Z,24.07
2019-02-10T11:45:00.856Z,25.40
2019-02-10T11:47:35.047Z,25.80
2019-02-10T11:50:07.423Z,24.03
2019-02-10T11:52:38.583Z,22.90
2019-02-10T11:55:10.723Z,23.70
2019-02-10T11:57:41.625Z,23.77
2019-02-10T12:00:13.945Z,24.20
2019-02-10T12:02:45.449Z,24.97
2019-02-10T12:05:16.815Z,24.83
2019-02-10T12:07:48.344Z,24.17
2019-02-10T12:10:19.833Z,25.20
2019-02-10T12:12:52.872Z,24.63
2019-02-10T12:15:25.155Z,24.80
2019-02-10T12:17:56.451Z,25.57
2019-02-10T12:20:29.314Z,26.80
2019-02-10T12:23:01.231Z,25.13
2019-02-10T12:25:32.704Z,26.03
2019-02-10T12:28:04.525Z,26.33
2019-02-10T12:30:36.836Z,24.93
2019-02-10T12:33:08.922Z,27.80
2019-02-10T12:35:41.920Z,27.50
2019-02-10T12:38:13.991Z,28.17
2019-02-10T12:40:48.368Z,27.10
2019-02-10T12:43:21.381Z,24.93
2019-02-10T12:45:56.346Z,25.10
2019-02-10T12:48:28.598Z,26.70
2019-02-10T12:51:00.525Z,28.20
2019-02-10T12:53:32.874Z,29.03
2019-02-10T12:56:04.913Z,26.80
2019-02-10T12:58:37.106Z,29.60
2019-02-10T13:01:08.983Z,29.37
2019-02-10T13:03:40.960Z,28.40
2019-02-10T13:06:13.312Z,27.93
2019-02-10T13:08:44.623Z,27.10
2019-02-10T13:11:16.478Z,28.57
2019-02-10T13:13:52.111Z,28.47
2019-02-10T13:16:24.124Z,27.43
2019-02-10T13:18:56.150Z,27.27
2019-02-10T13:21:27.447Z,27.77
2019-02-10T13:23:58.983Z,28.83
2019-02-10T13:26:30.695Z,26.93
2019-02-10T13:29:02.910Z,29.53
2019-02-10T13:31:35.260Z,28.87
2019-02-10T13:34:07.070Z,26.87
2019-02-10T13:36:38.723Z,29.77
2019-02-10T13:39:12.196Z,30.07
2019-02-10T13:41:41.182Z,28.30
2019-02-10T13:44:12.600Z,28.97
2019-02-10T13:46:44.351Z,29.17
2019-02-10T13:49:16.475Z,28.47
2019-02-10T13:51:48.702Z,30.67
2019-02-10T13:54:21.513Z,29.03
2019-02-10T13:57:12.758Z,31.23
2019-02-10T13:59:44.735Z,31.50
2019-02-10T14:02:17.268Z,32.97
2019-02-10T14:04:49.159Z,33.90
2019-02-10T14:07:21.295Z,34.03
2019-02-10T14:09:53.818Z,36.40
2019-02-10T14:12:26.285Z,34.83
2019-02-10T14:14:58.832Z,35.10
2019-02-10T14:17:31.374Z,36.67
2019-02-10T14:20:03.744Z,37.17
2019-02-10T14:22:35.964Z,35.40
2019-02-10T14:25:09.841Z,35.93
2019-02-10T14:27:42.942Z,36.80
2019-02-10T14:30:17.077Z,37.73
2019-02-10T14:32:49.791Z,37.57
2019-02-10T14:35:21.789Z,37.40
2019-02-10T14:37:53.952Z,36.90
2019-02-10T14:40:33.417Z,37.53
2019-02-10T14:43:01.502Z,36.00
2019-02-10T14:45:37.875Z,37.63
2019-02-10T14:48:10.721Z,38.77
2019-02-10T14:50:43.823Z,38.43
2019-02-10T14:53:16.481Z,38.07
2019-02-10T14:55:48.765Z,37.77
2019-02-10T14:58:21.800Z,39.87
2019-02-10T15:00:54.190Z,41.80
2019-02-10T15:03:26.049Z,40.23
2019-02-10T15:05:57.955Z,39.30
2019-02-10T15:08:30.428Z,42.00
2019-02-10T15:11:01.951Z,40.43
2019-02-10T15:13:34.384Z,40.27
2019-02-10T15:16:06.281Z,37.73
2019-02-10T15:18:40.613Z,41.13
2019-02-10T15:21:12.502Z,38.63
2019-02-10T15:23:45.365Z,38.83
2019-02-10T15:26:17.709Z,41.53
2019-02-10T15:28:49.850Z,38.17
2019-02-10T15:31:21.643Z,36.17
2019-02-10T15:33:54.880Z,35.57
2019-02-10T15:36:27.043Z,36.10
2019-02-10T15:39:00.100Z,40.70
2019-02-10T15:41:32.256Z,37.73
2019-02-10T15:44:04.439Z,37.67
2019-02-10T15:46:37.174Z,37.63
2019-02-10T15:49:09.274Z,38.83
2019-02-10T15:51:41.558Z,37.33
2019-02-10T15:54:12.992Z,38.17
2019-02-10T15:56:45.758Z,35.23
2019-02-10T15:59:17.948Z,37.17
2019-02-10T16:01:50.019Z,39.50
2019-02-10T16:04:23.394Z,42.10
2019-02-10T16:06:55.238Z,39.77
2019-02-10T16:09:27.058Z,42.50
2019-02-10T16:12:00.634Z,38.90
2019-02-10T16:14:32.678Z,38.47
2019-02-10T16:17:05.187Z,40.37
2019-02-10T16:19:38.436Z,40.33
2019-02-10T16:22:10.830Z,37.03
2019-02-10T16:24:42.756Z,37.63
2019-02-10T16:27:14.549Z,38.87
2019-02-10T16:29:45.726Z,38.57
2019-02-10T16:32:18.193Z,34.43
2019-02-10T16:34:49.789Z,38.40
2019-02-10T16:37:21.838Z,33.87
2019-02-10T16:39:54.555Z,37.73
2019-02-10T16:42:26.854Z,36.87
2019-02-10T16:45:00.440Z,37.07
2019-02-10T16:47:32.605Z,37.37
2019-02-10T16:50:06.642Z,36.20
2019-02-10T16:52:39.595Z,34.97
2019-02-10T16:55:14.030Z,38.40
2019-02-10T16:57:45.894Z,40.70
2019-02-10T17:00:18.072Z,38.97
2019-02-10T17:02:49.745Z,38.83
2019-02-10T17:05:21.875Z,42.30
2019-02-10T17:07:53.646Z,42.23
2019-02-10T17:10:25.614Z,42.37
2019-02-10T17:12:57.757Z,43.73
2019-02-10T17:15:31.577Z,42.07
2019-02-10T17:18:03.456Z,42.37
2019-02-10T17:20:35.140Z,43.27
2019-02-10T17:23:07.257Z,49.90
2019-02-10T17:25:40.181Z,43.73
2019-02-10T17:28:13.506Z,42.57
2019-02-10T17:30:45.471Z,49.70
2019-02-10T17:33:17.124Z,43.30
2019-02-10T17:35:48.553Z,47.50
2019-02-10T17:38:20.356Z,43.63
2019-02-10T17:41:00.656Z,44.13
2019-02-10T17:43:32.016Z,43.40
2019-02-10T17:46:04.366Z,45.80
2019-02-10T17:48:37.540Z,49.23
2019-02-10T17:51:09.390Z,43.60
2019-02-10T17:53:53.872Z,44.87
2019-02-10T17:56:25.596Z,39.03
2019-02-10T17:58:57.351Z,35.07
2019-02-10T18:01:28.664Z,42.83
2019-02-10T18:03:59.603Z,38.20
2019-02-10T18:06:30.479Z,39.80
2019-02-10T18:09:02.380Z,36.37
2019-02-10T18:11:33.737Z,41.10
2019-02-10T18:14:08.958Z,38.30
2019-02-10T18:16:58.786Z,36.83
2019-02-10T18:19:45.803Z,42.10
2019-02-10T18:22:31.688Z,42.13
2019-02-10T18:25:20.138Z,35.90
2019-02-10T18:28:22.203Z,35.03
2019-02-10T18:31:11.405Z,42.20
2019-02-10T18:34:04.136Z,50.37
2019-02-10T18:37:02.705Z,40.50
2019-02-10T18:39:42.243Z,40.47
2019-02-10T18:42:36.327Z,36.70
2019-02-10T18:45:23.862Z,41.40
2019-02-10T18:48:10.767Z,36.87
2019-02-10T18:51:06.690Z,35.87
2019-02-10T18:53:56.672Z,36.67
2019-02-10T18:56:58.842Z,36.07
2019-02-10T18:59:51.591Z,33.97
2019-02-10T19:02:41.329Z,37.37
2019-02-10T19:05:41.494Z,35.10
2019-02-10T19:08:22.468Z,36.77
2019-02-10T19:11:11.122Z,35.77
2019-02-10T19:13:58.074Z,38.43
2019-02-10T19:16:47.184Z,39.13
2019-02-10T19:19:50.208Z,40.03
2019-02-10T19:22:40.482Z,38.00
2019-02-10T19:25:25.568Z,37.10
2019-02-10T19:28:15.966Z,40.43
2019-02-10T19:31:13.430Z,36.87
2019-02-10T19:34:04.518Z,42.30
2019-02-10T19:36:50.556Z,33.73
2019-02-10T19:39:47.251Z,32.23
2019-02-10T19:42:40.718Z,37.07
2019-02-10T19:45:31.326Z,35.80
2019-02-10T19:48:22.407Z,41.33
2019-02-10T19:51:13.346Z,37.67
2019-02-10T19:53:56.287Z,39.70
2019-02-10T19:56:45.752Z,36.70
2019-02-10T19:59:35.750Z,42.10
2019-02-10T20:02:25.083Z,41.60
2019-02-10T20:05:06.917Z,37.30
2019-02-10T20:07:51.876Z,42.97
2019-02-10T20:10:42.697Z,38.53
2019-02-10T20:13:31.326Z,36.27
2019-02-10T20:16:15.783Z,38.70
2019-02-10T20:18:54.393Z,38.50
2019-02-10T20:21:47.679Z,45.13
2019-02-10T20:24:38.045Z,37.03
2019-02-10T20:27:34.686Z,43.07
2019-02-10T20:30:32.792Z,34.87
2019-02-10T20:33:15.166Z,35.30
2019-02-10T20:36:06.406Z,36.77
2019-02-10T20:39:00.752Z,42.77
2019-02-10T20:41:40.550Z,36.90
2019-02-10T20:44:56.494Z,43.00
2019-02-10T20:47:43.511Z,36.27
2019-02-10T20:50:37.606Z,41.17
2019-02-10T20:53:28.494Z,43.17
2019-02-10T20:56:20.125Z,34.77
2019-02-10T20:58:59.298Z,38.90
2019-02-10T21:01:42.087Z,38.33
2019-02-10T21:04:38.929Z,41.03
2019-02-10T21:07:17.630Z,36.10
2019-02-10T21:10:15.766Z,43.17
2019-02-10T21:13:09.277Z,35.90
2019-02-10T21:16:03.166Z,38.70
2019-02-10T21:18:54.776Z,38.10
2019-02-10T21:21:48.341Z,37.70
2019-02-10T21:24:37.926Z,36.37
2019-02-10T21:27:27.184Z,42.77
2019-02-10T21:30:07.574Z,32.27
2019-02-10T21:33:08.171Z,30.93
2019-02-10T21:36:05.122Z,34.50
2019-02-10T21:39:04.424Z,30.73
2019-02-10T21:41:55.282Z,30.73
2019-02-10T21:44:47.774Z,33.20
2019-02-10T21:47:27.050Z,33.47
2019-02-10T21:49:57.981Z,31.50
2019-02-10T21:52:28.934Z,37.80
2019-02-10T21:55:00.862Z,33.70
2019-02-10T21:57:31.735Z,31.83
2019-02-10T22:00:02.624Z,33.53
2019-02-10T22:02:33.295Z,29.83
2019-02-10T22:05:03.878Z,28.57
2019-02-10T22:07:34.536Z,28.23
2019-02-10T22:10:06.002Z,33.20
2019-02-10T22:12:37.164Z,30.20
2019-02-10T22:15:08.676Z,27.60
2019-02-10T22:17:38.827Z,29.10
2019-02-10T22:20:12.041Z,27.50
2019-02-10T22:22:42.994Z,28.63
2019-02-10T22:25:13.889Z,29.73
2019-02-10T22:27:45.811Z,32.30
2019-02-10T22:30:17.516Z,30.97
2019-02-10T22:32:48.392Z,29.10
2019-02-10T22:35:19.766Z,30.33
2019-02-10T22:37:50.580Z,31.57
2019-02-10T22:40:21.500Z,28.57
2019-02-10T22:42:53.963Z,28.80
2019-02-10T22:45:24.699Z,26.73
2019-02-10T22:47:55.523Z,26.23
2019-02-10T22:50:27.273Z,28.90
2019-02-10T22:52:58.601Z,24.47
2019-02-10T22:55:30.763Z,24.80
2019-02-10T22:58:01.650Z,23.90
2019-02-10T23:00:52.084Z,24.27
2019-02-10T23:03:23.615Z,23.20
2019-02-10T23:05:55.105Z,24.37
2019-02-10T23:08:27.059Z,22.13
2019-02-10T23:10:58.037Z,22.40
2019-02-10T23:13:29.137Z,22.57
2019-02-10T23:16:00.295Z,23.33
2019-02-10T23:18:32.303Z,22.80
2019-02-10T23:21:03.346Z,23.27
2019-02-10T23:23:34.810Z,24.47
2019-02-10T23:26:06.094Z,22.50
2019-02-10T23:28:38.573Z,23.23
2019-02-10T23:31:09.669Z,21.50
2019-02-10T23:33:40.976Z,22.70
2019-02-10T23:36:11.703Z,22.90
2019-02-10T23:38:43.231Z,21.23
2019-02-10T23:41:15.864Z,23.27
2019-02-10T23:43:46.706Z,21.63
2019-02-10T23:46:17.345Z,22.67
2019-02-10T23:48:48.099Z,23.10
2019-02-10T23:51:21.087Z,22.60
2019-02-10T23:53:51.804Z,22.47
2019-02-10T23:56:22.337Z,22.70
2019-02-10T23:58:56.218Z,21.30
